createdAt,value
2023-01-26T00:01:25.587Z,2.80
2023-01-26T00:05:27.496Z,2.90
2023-01-26T00:09:29.424Z,2.90
2023-01-26T00:13:31.478Z,2.80
2023-01-26T00:17:33.363Z,2.60
2023-01-26T00:21:35.356Z,2.70
2023-01-26T00:25:40.359Z,2.80
2023-01-26T00:29:42.195Z,2.80
2023-01-26T00:33:44.025Z,2.90
2023-01-26T00:37:45.935Z,2.90
2023-01-26T00:42:06.079Z,3.00
2023-01-26T00:46:08.002Z,3.00
2023-01-26T00:50:11.410Z,3.00
2023-01-26T00:54:13.635Z,2.90
2023-01-26T00:58:15.661Z,2.90
2023-01-26T01:02:17.671Z,2.90
2023-01-26T01:06:19.707Z,2.80
2023-01-26T01:10:37.997Z,2.80
2023-01-26T01:14:54.648Z,2.80
2023-01-26T01:18:56.617Z,2.80
2023-01-26T01:23:04.524Z,2.80
2023-01-26T01:27:18.950Z,2.70
2023-01-26T01:31:20.961Z,2.70
2023-01-26T01:35:34.576Z,2.80
2023-01-26T01:39:38.798Z,2.70
2023-01-26T01:43:45.384Z,2.60
2023-01-26T01:47:49.807Z,2.50
2023-01-26T01:52:26.252Z,2.50
2023-01-26T01:56:28.315Z,2.50
2023-01-26T02:00:30.406Z,2.40
2023-01-26T02:04:32.326Z,2.40
2023-01-26T02:08:46.760Z,2.40
2023-01-26T02:12:56.762Z,2.40
2023-01-26T02:16:58.584Z,2.50
2023-01-26T02:21:09.607Z,2.50
2023-01-26T02:25:23.605Z,2.40
2023-01-26T02:29:25.441Z,2.40
2023-01-26T02:33:28.866Z,2.30
2023-01-26T02:37:30.714Z,2.20
2023-01-26T02:41:55.783Z,2.30
2023-01-26T02:45:57.846Z,2.20
2023-01-26T02:50:00.686Z,2.20
2023-01-26T02:54:02.481Z,2.20
2023-01-26T02:58:04.989Z,2.20
2023-01-26T03:02:07.157Z,2.10
2023-01-26T03:06:11.123Z,2.10
2023-01-26T03:10:13.514Z,2.10
2023-01-26T03:14:16.064Z,2.10
2023-01-26T03:18:37.223Z,2.00
2023-01-26T03:23:13.847Z,2.00
2023-01-26T03:27:27.509Z,2.00
2023-01-26T03:31:29.400Z,2.00
2023-01-26T03:35:32.612Z,2.10
2023-01-26T03:39:53.217Z,2.10
2023-01-26T03:44:13.614Z,2.20
2023-01-26T03:48:34.226Z,2.10
2023-01-26T03:53:18.895Z,2.10
2023-01-26T03:57:20.823Z,2.10
2023-01-26T04:01:28.294Z,2.00
2023-01-26T04:06:15.552Z,2.00
2023-01-26T04:10:18.442Z,2.00
2023-01-26T04:14:50.514Z,1.90
2023-01-26T04:19:11.291Z,1.90
2023-01-26T04:23:20.057Z,1.90
2023-01-26T04:27:22.070Z,1.90
2023-01-26T04:31:24.041Z,1.80
2023-01-26T04:35:25.886Z,1.80
2023-01-26T04:39:27.933Z,1.90
2023-01-26T04:43:29.755Z,1.90
2023-01-26T04:47:31.775Z,1.90
2023-01-26T04:51:33.740Z,1.90
2023-01-26T04:55:35.507Z,1.90
2023-01-26T04:59:37.514Z,1.90
2023-01-26T05:03:39.471Z,2.00
2023-01-26T05:07:41.398Z,2.00
2023-01-26T05:11:43.296Z,2.00
2023-01-26T05:15:45.152Z,2.00
2023-01-26T05:19:47.074Z,2.10
2023-01-26T05:23:48.892Z,2.10
2023-01-26T05:27:53.956Z,2.10
2023-01-26T05:31:55.844Z,2.30
2023-01-26T05:35:58.790Z,2.40
2023-01-26T05:40:00.770Z,2.30
2023-01-26T05:44:02.794Z,2.30
2023-01-26T05:48:07.307Z,2.30
2023-01-26T05:52:10.920Z,2.20
2023-01-26T05:56:12.852Z,2.30
2023-01-26T06:00:17.103Z,2.30
2023-01-26T06:04:19.177Z,2.30
2023-01-26T06:08:21.340Z,2.30
2023-01-26T06:12:23.408Z,2.20
2023-01-26T06:16:25.432Z,2.30
2023-01-26T06:20:28.487Z,2.20
2023-01-26T06:24:32.589Z,2.20
2023-01-26T06:28:37.164Z,2.20
2023-01-26T06:32:42.283Z,2.20
2023-01-26T06:36:50.976Z,2.20
2023-01-26T06:41:15.754Z,2.10
2023-01-26T06:45:24.902Z,2.10
2023-01-26T06:49:28.775Z,2.20
2023-01-26T06:53:43.358Z,2.20
2023-01-26T06:57:45.461Z,2.30
2023-01-26T07:01:48.756Z,2.30
2023-01-26T07:05:53.403Z,2.30
2023-01-26T07:09:55.330Z,2.40
2023-01-26T07:13:57.233Z,2.50
2023-01-26T07:17:59.536Z,2.50
2023-01-26T07:22:01.956Z,2.50
2023-01-26T07:26:04.476Z,2.50
2023-01-26T07:30:10.596Z,2.50
2023-01-26T07:34:12.778Z,2.60
2023-01-26T07:38:14.720Z,2.60
2023-01-26T07:42:16.695Z,2.70
2023-01-26T07:46:18.639Z,2.70
2023-01-26T07:50:21.737Z,2.60
2023-01-26T07:54:23.643Z,2.60
2023-01-26T07:58:25.434Z,2.60
2023-01-26T08:02:27.300Z,2.60
2023-01-26T08:06:29.366Z,2.60
2023-01-26T08:10:34.197Z,2.60
2023-01-26T08:14:46.422Z,2.70
2023-01-26T08:18:49.025Z,2.70
2023-01-26T08:22:50.921Z,2.70
2023-01-26T08:26:55.229Z,2.70
2023-01-26T08:30:57.359Z,2.70
2023-01-26T08:34:59.578Z,2.70
2023-01-26T08:39:02.773Z,2.80
2023-01-26T08:43:04.858Z,2.70
2023-01-26T08:47:06.839Z,2.70
2023-01-26T08:51:08.982Z,2.60
2023-01-26T08:55:10.953Z,2.50
2023-01-26T08:59:12.814Z,2.50
2023-01-26T09:03:15.020Z,2.50
2023-01-26T09:07:17.963Z,2.50
2023-01-26T09:11:19.735Z,2.30
2023-01-26T09:15:21.680Z,2.30
2023-01-26T09:19:25.757Z,2.50
2023-01-26T09:23:27.625Z,2.40
2023-01-26T09:27:29.428Z,2.40
2023-01-26T09:31:31.428Z,2.20
2023-01-26T09:35:35.139Z,2.10
2023-01-26T09:39:37.056Z,2.00
2023-01-26T09:43:49.959Z,2.00
2023-01-26T09:48:31.740Z,1.90
2023-01-26T09:52:36.872Z,1.90
2023-01-26T09:56:38.841Z,2.00
2023-01-26T10:00:49.953Z,2.10
2023-01-26T10:04:53.608Z,2.10
2023-01-26T10:08:56.504Z,2.00
2023-01-26T10:12:58.452Z,2.10
2023-01-26T10:17:00.724Z,2.20
2023-01-26T10:21:04.148Z,2.10
2023-01-26T10:25:30.046Z,2.40
2023-01-26T10:29:31.852Z,2.40
2023-01-26T10:33:37.611Z,2.60
2023-01-26T10:37:39.590Z,2.50
2023-01-26T10:41:43.023Z,2.60
2023-01-26T10:45:48.683Z,2.60
2023-01-26T10:49:50.450Z,2.60
2023-01-26T10:54:21.058Z,2.70
2023-01-26T10:58:42.921Z,2.70
2023-01-26T11:02:54.012Z,2.60
2023-01-26T11:07:11.792Z,2.70
2023-01-26T11:11:28.242Z,2.60
2023-01-26T11:15:45.302Z,2.50
2023-01-26T11:20:17.723Z,2.50
2023-01-26T11:25:09.165Z,2.50
2023-01-26T11:29:31.053Z,2.60
2023-01-26T11:33:48.841Z,2.50
2023-01-26T11:38:40.828Z,2.60
2023-01-26T11:43:01.595Z,2.50
2023-01-26T11:47:16.089Z,2.50
2023-01-26T11:51:29.919Z,2.60
2023-01-26T11:56:07.258Z,2.50
2023-01-26T12:00:30.207Z,2.50
2023-01-26T12:04:37.708Z,2.40
2023-01-26T12:08:47.826Z,2.40
2023-01-26T12:13:27.847Z,2.40
2023-01-26T12:18:18.751Z,2.50
2023-01-26T12:22:43.263Z,2.50
2023-01-26T12:26:48.309Z,2.40
2023-01-26T12:31:27.908Z,2.50
2023-01-26T12:36:17.235Z,2.50
2023-01-26T12:40:51.411Z,2.50
2023-01-26T12:45:03.220Z,2.40
2023-01-26T12:49:21.536Z,2.50
2023-01-26T12:53:34.989Z,2.40
2023-01-26T12:58:03.032Z,2.40
2023-01-26T13:02:30.590Z,2.50
2023-01-26T13:06:32.779Z,2.50
2023-01-26T13:10:47.025Z,2.50
2023-01-26T13:15:10.422Z,2.50
2023-01-26T13:19:44.588Z,2.60
2023-01-26T13:23:52.715Z,2.50
2023-01-26T13:28:04.328Z,2.50
2023-01-26T13:32:26.322Z,2.40
2023-01-26T13:36:30.752Z,2.40
2023-01-26T13:40:38.009Z,2.20
2023-01-26T13:44:45.475Z,2.20
2023-01-26T13:48:52.366Z,2.10
2023-01-26T13:52:54.281Z,2.10
2023-01-26T13:57:06.938Z,2.10
2023-01-26T14:01:12.808Z,2.10
2023-01-26T14:05:22.633Z,2.00
2023-01-26T14:09:27.759Z,2.00
2023-01-26T14:13:38.747Z,2.00
2023-01-26T14:18:01.427Z,2.00
2023-01-26T14:22:05.292Z,2.00
2023-01-26T14:26:29.521Z,2.00
2023-01-26T14:30:34.132Z,2.00
2023-01-26T14:34:35.993Z,2.00
2023-01-26T14:38:48.874Z,2.10
2023-01-26T14:42:52.533Z,1.90
2023-01-26T14:47:26.559Z,1.90
2023-01-26T14:51:28.511Z,2.00
2023-01-26T14:55:39.574Z,1.90
2023-01-26T14:59:41.372Z,1.90
2023-01-26T15:03:43.276Z,2.10
2023-01-26T15:08:02.337Z,1.90
2023-01-26T15:12:16.834Z,1.90
2023-01-26T15:16:23.098Z,1.80
2023-01-26T15:20:24.923Z,1.80
2023-01-26T15:24:26.894Z,1.80
2023-01-26T15:28:28.757Z,1.80
2023-01-26T15:32:44.534Z,1.70
2023-01-26T15:36:50.589Z,1.60
2023-01-26T15:40:52.501Z,1.60
2023-01-26T15:44:54.768Z,1.50
2023-01-26T15:48:57.045Z,1.60
2023-01-26T15:52:59.171Z,1.50
2023-01-26T15:57:03.238Z,1.60
2023-01-26T16:01:06.384Z,1.60
2023-01-26T16:05:20.633Z,1.60
2023-01-26T16:09:22.707Z,1.70
2023-01-26T16:13:27.430Z,1.60
2023-01-26T16:17:29.667Z,1.60
2023-01-26T16:21:45.743Z,1.30
2023-01-26T16:25:47.862Z,1.40
2023-01-26T16:29:49.885Z,1.40
2023-01-26T16:33:52.068Z,1.20
2023-01-26T16:37:59.736Z,1.40
2023-01-26T16:42:06.598Z,1.50
2023-01-26T16:46:14.172Z,1.40
2023-01-26T16:50:16.487Z,1.40
2023-01-26T16:54:18.459Z,1.20
2023-01-26T16:58:24.047Z,1.20
2023-01-26T17:02:28.208Z,1.20
2023-01-26T17:06:32.032Z,1.30
2023-01-26T17:10:34.008Z,1.30
2023-01-26T17:14:39.151Z,1.20
2023-01-26T17:18:41.775Z,1.30
2023-01-26T17:22:43.704Z,1.30
2023-01-26T17:26:45.670Z,1.30
2023-01-26T17:31:23.273Z,1.30
2023-01-26T17:35:25.354Z,1.30
2023-01-26T17:39:30.505Z,1.20
2023-01-26T17:43:32.632Z,1.30
2023-01-26T17:47:34.748Z,1.10
2023-01-26T17:51:36.519Z,1.20
2023-01-26T17:55:38.618Z,1.10
2023-01-26T17:59:42.726Z,1.20
2023-01-26T18:03:44.937Z,1.30
2023-01-26T18:07:51.522Z,1.40
2023-01-26T18:11:53.816Z,1.40
2023-01-26T18:15:59.873Z,1.40
2023-01-26T18:20:07.604Z,1.40
2023-01-26T18:24:13.428Z,1.20
2023-01-26T18:28:28.802Z,1.30
2023-01-26T18:32:30.965Z,1.30
2023-01-26T18:36:33.812Z,1.30
2023-01-26T18:40:58.468Z,1.20
2023-01-26T18:45:03.546Z,1.20
2023-01-26T18:49:22.980Z,1.20
2023-01-26T18:53:50.552Z,1.20
2023-01-26T18:58:12.343Z,1.30
2023-01-26T19:02:47.036Z,1.20
2023-01-26T19:07:01.749Z,1.20
2023-01-26T19:11:05.797Z,1.30
2023-01-26T19:15:09.459Z,1.20
2023-01-26T19:19:11.914Z,1.30
2023-01-26T19:23:13.929Z,1.30
2023-01-26T19:27:23.675Z,1.30
2023-01-26T19:31:28.946Z,1.40
2023-01-26T19:35:32.082Z,1.40
2023-01-26T19:39:36.814Z,1.50
2023-01-26T19:43:38.945Z,1.40
2023-01-26T19:47:41.775Z,1.40
2023-01-26T19:51:43.692Z,1.40
2023-01-26T19:55:45.659Z,1.40
2023-01-26T19:59:47.563Z,1.40
2023-01-26T20:04:12.651Z,1.50
2023-01-26T20:08:14.660Z,1.60
2023-01-26T20:12:27.312Z,1.40
2023-01-26T20:21:00.673Z,1.50
2023-01-26T20:25:02.875Z,1.50
2023-01-26T20:29:08.763Z,1.40
2023-01-26T20:33:15.969Z,1.20
2023-01-26T20:37:21.663Z,1.30
2023-01-26T20:41:27.768Z,1.30
2023-01-26T20:45:29.852Z,1.40
2023-01-26T20:49:31.817Z,1.40
2023-01-26T20:53:34.086Z,1.40
2023-01-26T20:57:36.377Z,1.40
2023-01-26T21:01:44.185Z,1.30
2023-01-26T21:05:46.317Z,1.30
2023-01-26T21:09:48.298Z,1.30
2023-01-26T21:13:52.685Z,1.20
2023-01-26T21:17:59.709Z,1.20
2023-01-26T21:26:59.539Z,1.20
2023-01-26T21:31:09.495Z,1.20
2023-01-26T21:35:13.762Z,1.20
2023-01-26T21:39:15.762Z,1.30
2023-01-26T21:43:17.771Z,1.30
2023-01-26T21:47:19.793Z,1.20
2023-01-26T21:51:54.114Z,1.10
2023-01-26T21:55:55.911Z,1.00
2023-01-26T21:59:57.725Z,1.00
2023-01-26T22:04:01.693Z,0.90
2023-01-26T22:08:03.613Z,0.80
2023-01-26T22:12:05.962Z,0.90
2023-01-26T22:16:08.275Z,0.80
2023-01-26T22:20:11.790Z,0.80
2023-01-26T22:24:14.720Z,1.00
2023-01-26T22:28:16.666Z,1.10
2023-01-26T22:32:18.588Z,1.20
2023-01-26T22:36:21.388Z,1.30
2023-01-26T22:40:23.347Z,1.20
2023-01-26T22:44:25.242Z,1.20
2023-01-26T22:48:27.345Z,1.20
2023-01-26T22:52:29.657Z,1.30
2023-01-26T22:56:31.663Z,1.20
2023-01-26T23:00:33.995Z,1.20
2023-01-26T23:04:35.846Z,1.20
2023-01-26T23:08:37.823Z,1.20
2023-01-26T23:12:41.832Z,1.20
2023-01-26T23:16:43.865Z,1.20
2023-01-26T23:20:45.888Z,1.10
2023-01-26T23:25:07.664Z,1.10
2023-01-26T23:29:09.598Z,1.20
2023-01-26T23:33:11.463Z,0.90
2023-01-26T23:37:13.410Z,1.00
2023-01-26T23:41:17.879Z,0.90
2023-01-26T23:45:19.698Z,1.00
2023-01-26T23:49:21.654Z,1.10
2023-01-26T23:53:24.124Z,1.00
2023-01-26T23:57:26.393Z,1.00
